createdAt,value
2018-05-17T18:37:04.902Z,46.90
2018-05-17T18:39:33.158Z,47.90
2018-05-17T18:42:01.552Z,48.40
2018-05-17T18:44:29.832Z,48.30
2018-05-17T18:46:57.800Z,48.20
2018-05-17T18:49:26.068Z,48.20
2018-05-17T18:51:54.356Z,48.60
2018-05-17T18:54:23.050Z,48.30
2018-05-17T18:56:52.865Z,48.40
2018-05-17T18:59:20.766Z,48.40
2018-05-17T19:01:49.027Z,48.40
2018-05-17T19:04:16.501Z,48.70
2018-05-17T19:06:44.151Z,49.10
2018-05-17T19:09:11.636Z,48.80
2018-05-17T19:11:39.124Z,49.10
2018-05-17T19:14:06.878Z,49.20
2018-05-17T19:16:34.413Z,49.10
2018-05-17T19:19:01.925Z,49.20
2018-05-17T19:21:30.099Z,49.10
2018-05-17T19:23:58.491Z,49.30
2018-05-17T19:26:26.780Z,49.40
2018-05-17T19:28:55.877Z,49.50
2018-05-17T19:31:23.433Z,49.40
2018-05-17T19:33:52.047Z,49.60
2018-05-17T19:36:19.583Z,49.70
2018-05-17T19:38:47.137Z,49.70
2018-05-17T19:41:15.388Z,49.70
2018-05-17T19:43:42.881Z,49.70
2018-05-17T19:46:11.145Z,50.30
2018-05-17T19:48:39.409Z,50.50
2018-05-17T19:51:06.935Z,50.50
2018-05-17T19:53:34.457Z,50.80
2018-05-17T19:56:02.721Z,51.10
2018-05-17T19:58:31.006Z,51.20
2018-05-17T20:00:59.288Z,51.30
2018-05-17T20:03:26.795Z,51.40
2018-05-17T20:05:54.314Z,51.70
2018-05-17T20:08:21.818Z,52.20
2018-05-17T20:10:49.311Z,52.40
2018-05-17T20:13:17.594Z,53.10
2018-05-17T20:15:45.846Z,53.20
2018-05-17T20:18:13.431Z,53.10
2018-05-17T20:20:41.671Z,53.60
2018-05-17T20:23:09.164Z,53.60
2018-05-17T20:25:37.426Z,54.20
2018-05-17T20:28:04.998Z,54.10
2018-05-17T20:30:32.487Z,54.50
2018-05-17T20:33:00.080Z,54.80
2018-05-17T20:35:27.490Z,55.20
2018-05-17T20:37:55.987Z,55.50
2018-05-17T20:40:23.494Z,55.50
2018-05-17T20:42:50.998Z,55.90
2018-05-17T20:45:19.279Z,56.40
2018-05-17T20:47:46.777Z,56.40
2018-05-17T20:50:14.264Z,56.70
2018-05-17T20:52:41.937Z,56.80
2018-05-17T20:55:09.583Z,56.90
2018-05-17T20:57:37.768Z,57.40
2018-05-17T21:00:06.027Z,57.50
2018-05-17T21:02:33.523Z,57.50
2018-05-17T21:05:01.786Z,57.80
2018-05-17T21:07:29.306Z,57.80
2018-05-17T21:09:56.823Z,57.90
2018-05-17T21:12:25.100Z,58.50
2018-05-17T21:14:53.378Z,58.80
2018-05-17T21:17:21.648Z,59.00
2018-05-17T21:19:49.927Z,59.00
2018-05-17T21:22:18.201Z,59.20
2018-05-17T21:24:46.479Z,59.50
2018-05-17T21:27:14.056Z,59.40
2018-05-17T21:29:41.513Z,59.60
2018-05-17T21:32:09.783Z,59.90
2018-05-17T21:34:38.067Z,61.00
2018-05-17T21:37:06.324Z,60.60
2018-05-17T21:39:33.842Z,60.60
2018-05-17T21:42:01.311Z,61.10
2018-05-17T21:44:28.811Z,61.50
2018-05-17T21:46:56.286Z,61.70
2018-05-17T21:49:24.549Z,62.30
2018-05-17T21:51:52.113Z,62.20
2018-05-17T21:54:20.392Z,63.70
2018-05-17T21:56:48.667Z,63.30
2018-05-17T21:59:16.182Z,63.20
2018-05-17T22:01:43.677Z,63.60
2018-05-17T22:04:11.175Z,63.80
2018-05-17T22:06:38.676Z,64.10
2018-05-17T22:09:06.185Z,64.10
2018-05-17T22:11:34.426Z,64.50
2018-05-17T22:14:01.947Z,64.50
2018-05-17T22:16:29.441Z,64.70
2018-05-17T22:18:56.951Z,64.90
2018-05-17T22:21:24.444Z,65.30
2018-05-17T22:23:51.984Z,65.60
2018-05-17T22:26:19.471Z,65.80
2018-05-17T22:28:46.971Z,65.80
2018-05-17T22:31:15.218Z,66.10
2018-05-17T22:33:42.721Z,66.10
2018-05-17T22:36:10.222Z,66.10
2018-05-17T22:38:37.700Z,66.20
2018-05-17T22:41:05.996Z,66.90
2018-05-17T22:43:34.250Z,66.90
2018-05-17T22:46:02.585Z,67.50
2018-05-17T22:48:30.105Z,67.20
2018-05-17T22:50:57.600Z,67.30
2018-05-17T22:53:25.097Z,67.40
2018-05-17T22:55:52.716Z,67.50
2018-05-17T22:58:31.220Z,67.60
2018-05-17T23:00:59.497Z,67.60
2018-05-17T23:03:27.761Z,68.10
2018-05-17T23:05:55.337Z,68.00
2018-05-17T23:08:23.620Z,68.30
2018-05-17T23:10:51.988Z,68.40
2018-05-17T23:13:20.239Z,68.70
2018-05-17T23:15:47.758Z,68.70
2018-05-17T23:18:15.242Z,69.10
2018-05-17T23:20:42.756Z,69.20
2018-05-17T23:23:11.017Z,69.50
2018-05-17T23:25:39.326Z,69.40
2018-05-17T23:28:06.871Z,69.40
2018-05-17T23:30:35.124Z,69.20
2018-05-17T23:33:02.703Z,69.10
2018-05-17T23:35:30.980Z,69.30
2018-05-17T23:37:59.248Z,69.40
2018-05-17T23:40:38.705Z,69.30
2018-05-17T23:43:07.000Z,69.60
2018-05-17T23:45:34.522Z,69.60
2018-05-17T23:48:02.100Z,69.90
2018-05-17T23:50:30.344Z,70.00
2018-05-17T23:52:57.844Z,69.90
2018-05-17T23:55:26.154Z,69.90
2018-05-17T23:57:53.666Z,69.90
